createdAt,value
2017-10-21T00:00:39.216Z,100928.82
2017-10-21T00:03:05.084Z,100933.17
2017-10-21T00:05:30.852Z,100928.55
2017-10-21T00:07:56.616Z,100937.56
2017-10-21T00:10:22.370Z,100931.13
2017-10-21T00:12:48.171Z,100936.59
2017-10-21T00:15:13.930Z,100939.90
2017-10-21T00:17:40.704Z,100931.96
2017-10-21T00:20:06.687Z,100931.88
2017-10-21T00:22:32.444Z,100933.03
2017-10-21T00:24:58.188Z,100934.09
2017-10-21T00:27:23.932Z,100932.27
2017-10-21T00:29:50.749Z,100929.19
2017-10-21T00:32:16.502Z,100929.35
2017-10-21T00:34:42.244Z,100928.80
2017-10-21T00:37:08.004Z,100922.83
2017-10-21T00:39:33.763Z,100924.11
2017-10-21T00:41:59.671Z,100927.48
2017-10-21T00:44:25.423Z,100930.42
2017-10-21T00:49:43.408Z,100935.29
2017-10-21T00:52:09.194Z,100932.36
2017-10-21T00:54:35.800Z,100928.70
2017-10-21T00:57:01.563Z,100925.41
2017-10-21T00:59:27.310Z,100920.84
2017-10-21T01:01:54.039Z,100921.81
2017-10-21T01:04:19.976Z,100921.12
2017-10-21T01:06:45.732Z,100924.95
2017-10-21T01:09:11.492Z,100927.29
2017-10-21T01:11:37.238Z,100929.38
2017-10-21T01:14:03.874Z,100923.66
2017-10-21T01:16:29.684Z,100930.82
2017-10-21T01:18:56.343Z,100925.23
2017-10-21T01:21:22.103Z,100922.16
2017-10-21T01:23:47.865Z,100921.97
2017-10-21T01:26:13.619Z,100922.72
2017-10-21T01:28:39.430Z,100922.05
2017-10-21T01:31:05.191Z,100918.55
2017-10-21T01:33:30.938Z,100922.58
2017-10-21T01:35:57.640Z,100923.44
2017-10-21T01:38:23.462Z,100922.91
2017-10-21T01:40:49.205Z,100916.11
2017-10-21T01:43:15.739Z,100917.75
2017-10-21T01:45:41.564Z,100920.42
2017-10-21T01:48:07.310Z,100921.54
2017-10-21T01:50:33.115Z,100920.77
2017-10-21T01:52:59.003Z,100926.35
2017-10-21T01:55:25.832Z,100925.17
2017-10-21T01:57:51.669Z,100916.78
2017-10-21T02:00:17.433Z,100916.11
2017-10-21T02:02:43.236Z,100912.52
2017-10-21T02:05:10.364Z,100918.77
2017-10-21T02:07:36.150Z,100912.81
2017-10-21T02:10:02.727Z,100909.30
2017-10-21T02:12:29.475Z,100912.59
2017-10-21T02:14:56.456Z,100908.15
2017-10-21T02:17:22.244Z,100908.41
2017-10-21T02:19:48.995Z,100905.11
2017-10-21T02:22:14.791Z,100910.85
2017-10-21T02:24:40.556Z,100900.94
2017-10-21T02:27:07.184Z,100903.88
2017-10-21T02:29:32.967Z,100906.23
2017-10-21T02:31:58.731Z,100909.13
2017-10-21T02:34:24.544Z,100906.95
2017-10-21T02:36:51.394Z,100909.45
2017-10-21T02:39:17.215Z,100907.66
2017-10-21T02:41:43.085Z,100911.32
2017-10-21T02:44:09.607Z,100906.26
2017-10-21T02:46:36.299Z,100912.95
2017-10-21T02:49:02.245Z,100912.11
2017-10-21T02:51:28.983Z,100917.46
2017-10-21T02:53:54.744Z,100923.28
2017-10-21T02:56:21.331Z,100914.97
2017-10-21T02:58:47.096Z,100920.64
2017-10-21T03:01:13.987Z,100920.95
2017-10-21T03:03:39.745Z,100920.07
2017-10-21T03:06:06.358Z,100927.34
2017-10-21T03:08:32.108Z,100925.62
2017-10-21T03:10:58.836Z,100917.14
2017-10-21T03:13:24.616Z,100920.70
2017-10-21T03:15:51.352Z,100926.41
2017-10-21T03:18:17.131Z,100921.80
2017-10-21T03:20:42.879Z,100914.70
2017-10-21T03:23:09.460Z,100923.30
2017-10-21T03:25:36.249Z,100920.19
2017-10-21T03:28:02.181Z,100928.37
2017-10-21T03:30:27.928Z,100925.84
2017-10-21T03:32:53.675Z,100932.75
2017-10-21T03:35:19.433Z,100933.91
2017-10-21T03:37:46.051Z,100933.12
2017-10-21T03:40:12.817Z,100932.22
2017-10-21T03:42:39.540Z,100938.70
2017-10-21T03:45:05.445Z,100942.70
2017-10-21T03:47:31.224Z,100946.95
2017-10-21T03:49:57.817Z,100942.30
2017-10-21T03:52:23.570Z,100946.84
2017-10-21T03:54:49.352Z,100945.48
2017-10-21T03:57:16.095Z,100947.05
2017-10-21T03:59:41.876Z,100944.29
2017-10-21T04:02:07.624Z,100942.04
2017-10-21T04:04:34.217Z,100945.48
2017-10-21T04:06:59.963Z,100939.44
2017-10-21T04:09:25.705Z,100944.44
2017-10-21T04:11:51.459Z,100941.77
2017-10-21T04:14:17.203Z,100949.91
2017-10-21T04:16:42.957Z,100941.46
2017-10-21T04:19:09.660Z,100941.08
2017-10-21T04:21:35.409Z,100936.34
2017-10-21T04:24:01.171Z,100944.27
2017-10-21T04:26:27.882Z,100941.33
2017-10-21T04:28:53.632Z,100938.43
2017-10-21T04:31:19.379Z,100934.16
2017-10-21T04:33:45.158Z,100927.19
2017-10-21T04:36:11.045Z,100930.42
2017-10-21T04:38:36.788Z,100927.06
2017-10-21T04:41:02.585Z,100935.52
2017-10-21T04:43:28.338Z,100935.25
2017-10-21T04:45:54.088Z,100937.23
2017-10-21T04:48:19.829Z,100941.97
2017-10-21T04:50:45.568Z,100937.59
2017-10-21T04:53:11.365Z,100938.51
2017-10-21T04:55:37.139Z,100939.05
2017-10-21T04:58:02.892Z,100938.52
2017-10-21T05:00:28.643Z,100937.92
2017-10-21T05:02:55.347Z,100945.17
2017-10-21T05:05:21.105Z,100941.02
2017-10-21T05:07:46.864Z,100947.80
2017-10-21T05:10:12.647Z,100948.04
2017-10-21T05:12:39.351Z,100947.09
2017-10-21T05:15:05.129Z,100958.77
2017-10-21T05:17:31.677Z,100951.91
2017-10-21T05:19:58.392Z,100956.30
2017-10-21T05:22:25.137Z,100956.47
2017-10-21T05:24:50.871Z,100958.14
2017-10-21T05:27:17.571Z,100956.30
2017-10-21T05:29:44.293Z,100962.22
2017-10-21T05:32:10.956Z,100967.89
2017-10-21T05:34:37.687Z,100962.02
2017-10-21T05:37:03.431Z,100963.53
2017-10-21T05:39:29.216Z,100962.35
2017-10-21T05:41:54.966Z,100968.71
2017-10-21T05:44:20.770Z,100961.53
2017-10-21T05:46:46.535Z,100967.19
2017-10-21T05:49:12.290Z,100974.66
2017-10-21T05:51:38.041Z,100971.67
2017-10-21T05:54:09.841Z,100973.52
2017-10-21T05:56:35.628Z,100979.17
2017-10-21T05:59:01.379Z,100975.59
2017-10-21T06:01:27.147Z,100975.91
2017-10-21T06:03:53.077Z,100977.30
2017-10-21T06:06:18.846Z,100978.81
2017-10-21T06:08:44.854Z,100973.23
2017-10-21T06:11:11.460Z,100978.25
2017-10-21T06:13:37.220Z,100977.79
2017-10-21T06:16:03.099Z,100978.14
2017-10-21T06:18:28.873Z,100978.43
2017-10-21T06:20:54.709Z,100977.79
2017-10-21T06:23:21.273Z,100974.78
2017-10-21T06:25:47.064Z,100980.39
2017-10-21T06:28:12.807Z,100979.99
2017-10-21T06:30:39.255Z,100983.69
2017-10-21T06:33:05.895Z,100977.58
2017-10-21T06:35:31.648Z,100985.06
2017-10-21T06:37:57.449Z,100986.34
2017-10-21T06:40:24.118Z,100990.78
2017-10-21T06:42:50.918Z,100994.65
2017-10-21T06:45:17.603Z,100998.25
2017-10-21T06:47:43.544Z,100997.80
2017-10-21T06:50:09.352Z,100997.67
2017-10-21T06:52:35.126Z,100992.39
2017-10-21T06:55:01.824Z,100994.29
2017-10-21T06:57:28.671Z,101000.58
2017-10-21T06:59:54.539Z,100998.18
2017-10-21T07:02:21.122Z,101001.27
2017-10-21T07:04:47.080Z,101003.09
2017-10-21T07:07:12.837Z,100994.37
2017-10-21T07:09:44.820Z,101002.39
2017-10-21T07:12:12.012Z,101009.00
2017-10-21T07:14:37.776Z,101001.99
2017-10-21T07:17:03.596Z,101002.81
2017-10-21T07:19:29.353Z,101005.68
2017-10-21T07:21:55.109Z,101008.47
2017-10-21T07:24:20.871Z,101014.30
2017-10-21T07:26:47.602Z,101008.59
2017-10-21T07:29:14.466Z,101006.67
2017-10-21T07:31:41.120Z,101009.79
2017-10-21T07:34:06.889Z,101011.48
2017-10-21T07:36:32.644Z,101017.96
2017-10-21T07:38:58.405Z,101016.44
2017-10-21T07:41:24.226Z,101021.02
2017-10-21T07:43:50.033Z,101028.17
2017-10-21T07:46:15.945Z,101024.49
2017-10-21T07:48:41.712Z,101032.16
2017-10-21T07:51:07.584Z,101030.03
2017-10-21T07:53:33.329Z,101027.75
2017-10-21T07:55:59.090Z,101029.65
2017-10-21T07:58:24.841Z,101028.75
2017-10-21T08:00:50.652Z,101026.55
2017-10-21T08:03:16.419Z,101027.92
2017-10-21T08:05:42.167Z,101022.52
2017-10-21T08:08:07.949Z,101022.73
2017-10-21T08:10:33.712Z,101019.16
2017-10-21T08:12:59.469Z,101023.52
2017-10-21T08:15:25.238Z,101022.93
2017-10-21T08:17:50.987Z,101020.77
2017-10-21T08:20:19.642Z,101023.91
2017-10-21T08:22:45.489Z,101027.80
2017-10-21T08:25:11.430Z,101031.95
2017-10-21T08:27:38.202Z,101026.73
2017-10-21T08:30:04.776Z,101039.22
2017-10-21T08:32:31.492Z,101038.34
2017-10-21T08:34:57.287Z,101042.14
2017-10-21T08:37:23.032Z,101035.50
2017-10-21T08:39:49.842Z,101038.70
2017-10-21T08:42:15.600Z,101041.48
2017-10-21T08:44:42.289Z,101045.37
2017-10-21T08:47:08.077Z,101044.63
2017-10-21T08:49:33.904Z,101045.73
2017-10-21T08:51:59.665Z,101053.16
2017-10-21T08:54:25.456Z,101055.89
2017-10-21T08:56:51.207Z,101055.57
2017-10-21T08:59:17.004Z,101056.03
2017-10-21T09:01:43.668Z,101051.11
2017-10-21T09:04:09.411Z,101048.53
2017-10-21T09:06:35.156Z,101049.59
2017-10-21T09:09:00.913Z,101046.26
2017-10-21T09:11:27.281Z,101042.94
2017-10-21T09:13:53.900Z,101048.88
2017-10-21T09:16:20.652Z,101040.52
2017-10-21T09:18:47.437Z,101043.29
2017-10-21T09:21:13.224Z,101051.01
2017-10-21T09:23:39.781Z,101052.77
2017-10-21T09:26:07.136Z,101059.00
2017-10-21T09:28:32.929Z,101058.19
2017-10-21T09:30:59.544Z,101050.03
2017-10-21T09:33:26.285Z,101049.98
2017-10-21T09:35:52.864Z,101049.81
2017-10-21T09:38:19.540Z,101060.66
2017-10-21T09:40:46.277Z,101059.69
2017-10-21T09:43:12.084Z,101059.61
2017-10-21T09:45:38.684Z,101055.63
2017-10-21T09:48:04.470Z,101056.94
2017-10-21T09:50:30.227Z,101057.05
2017-10-21T09:52:56.944Z,101058.14
2017-10-21T09:55:22.737Z,101060.21
2017-10-21T09:57:49.196Z,101060.80
2017-10-21T10:00:16.577Z,101057.47
2017-10-21T10:02:42.323Z,101054.22
2017-10-21T10:05:08.888Z,101053.70
2017-10-21T10:07:34.688Z,101051.16
2017-10-21T10:10:01.380Z,101050.06
2017-10-21T10:12:27.124Z,101044.23
2017-10-21T10:14:53.817Z,101051.11
2017-10-21T10:17:21.579Z,101055.44
2017-10-21T10:19:47.348Z,101058.93
2017-10-21T10:22:13.980Z,101054.19
2017-10-21T10:24:40.697Z,101044.75
2017-10-21T10:27:06.455Z,101045.47
2017-10-21T10:29:33.147Z,101045.74
2017-10-21T10:31:59.032Z,101038.96
2017-10-21T10:34:24.779Z,101030.44
2017-10-21T10:36:51.358Z,101031.55
2017-10-21T10:39:17.181Z,101034.50
2017-10-21T10:41:42.946Z,101035.50
2017-10-21T10:44:09.584Z,101032.55
2017-10-21T10:46:36.459Z,101016.98
2017-10-21T10:49:02.252Z,101018.88
2017-10-21T10:51:28.968Z,101016.42
2017-10-21T10:53:55.585Z,101014.67
2017-10-21T10:56:21.391Z,101014.56
2017-10-21T10:58:47.143Z,101007.81
2017-10-21T11:01:14.023Z,101011.36
2017-10-21T11:03:40.789Z,101010.48
2017-10-21T11:06:06.549Z,101009.19
2017-10-21T11:08:32.352Z,101014.75
2017-10-21T11:10:59.098Z,101015.49
2017-10-21T11:13:24.852Z,101010.77
2017-10-21T11:15:50.732Z,101003.63
2017-10-21T11:18:16.512Z,101002.59
2017-10-21T11:20:43.250Z,100996.41
2017-10-21T11:23:09.007Z,101002.12
2017-10-21T11:25:35.637Z,100987.62
2017-10-21T11:28:01.380Z,100974.97
2017-10-21T11:30:27.285Z,100975.30
2017-10-21T11:32:54.049Z,100973.42
2017-10-21T11:35:19.808Z,100984.39
2017-10-21T11:37:47.043Z,100987.23
2017-10-21T11:40:12.804Z,100990.60
2017-10-21T11:42:38.570Z,100986.67
2017-10-21T11:45:04.340Z,100983.16
2017-10-21T11:47:31.056Z,100983.27
2017-10-21T11:49:56.812Z,100980.03
2017-10-21T11:52:23.216Z,100987.88
2017-10-21T11:54:49.064Z,100982.99
2017-10-21T11:57:14.823Z,100983.18
2017-10-21T11:59:40.699Z,100977.98
2017-10-21T12:02:06.443Z,100993.78
2017-10-21T12:04:32.231Z,100981.25
2017-10-21T12:06:57.980Z,100983.20
2017-10-21T12:09:24.799Z,100979.05
2017-10-21T12:11:51.531Z,100990.11
2017-10-21T12:14:17.464Z,100989.05
2017-10-21T12:16:44.167Z,100992.44
2017-10-21T12:19:09.908Z,100987.62
2017-10-21T12:21:36.690Z,100979.66
2017-10-21T12:24:02.476Z,100982.32
2017-10-21T12:26:28.219Z,100982.73
2017-10-21T12:28:53.964Z,100975.27
2017-10-21T12:31:19.723Z,100968.97
2017-10-21T12:33:45.524Z,100961.92
2017-10-21T12:36:11.259Z,100969.05
2017-10-21T12:38:37.034Z,100963.89
2017-10-21T12:41:02.779Z,100953.27
2017-10-21T12:43:28.529Z,100959.56
2017-10-21T12:45:56.004Z,100957.44
2017-10-21T12:48:21.789Z,100963.73
2017-10-21T12:50:47.624Z,100959.19
2017-10-21T12:53:13.368Z,100953.41
2017-10-21T12:55:39.156Z,100950.95
2017-10-21T12:58:06.061Z,100956.19
2017-10-21T13:00:32.679Z,100955.84
2017-10-21T13:02:58.460Z,100958.23
2017-10-21T13:05:25.103Z,100953.88
2017-10-21T13:07:51.011Z,100952.20
2017-10-21T13:10:19.039Z,100952.13
2017-10-21T13:12:45.661Z,100957.94
2017-10-21T13:15:11.449Z,100955.28
2017-10-21T13:17:38.087Z,100943.33
2017-10-21T13:20:04.010Z,100946.33
2017-10-21T13:22:30.745Z,100948.11
2017-10-21T13:24:56.537Z,100943.33
2017-10-21T13:27:23.343Z,100946.06
2017-10-21T13:29:49.095Z,100946.48
2017-10-21T13:32:14.998Z,100941.92
2017-10-21T13:34:40.743Z,100944.95
2017-10-21T13:37:06.695Z,100941.73
2017-10-21T13:39:32.438Z,100939.02
2017-10-21T13:41:59.172Z,100939.81
2017-10-21T13:44:24.944Z,100943.31
2017-10-21T13:46:50.684Z,100932.88
2017-10-21T13:49:17.135Z,100930.93
2017-10-21T13:51:43.824Z,100923.08
2017-10-21T13:54:10.506Z,100921.89
2017-10-21T13:56:37.270Z,100912.05
2017-10-21T13:59:03.020Z,100908.62
2017-10-21T14:01:28.758Z,100912.02
2017-10-21T14:03:54.499Z,100909.59
2017-10-21T14:06:20.324Z,100910.08
2017-10-21T14:08:46.085Z,100903.95
2017-10-21T14:11:11.999Z,100908.12
2017-10-21T14:13:38.583Z,100916.25
2017-10-21T14:16:04.334Z,100914.92
2017-10-21T14:18:30.084Z,100919.33
2017-10-21T14:20:56.819Z,100916.33
2017-10-21T14:23:23.942Z,100927.15
2017-10-21T14:25:49.697Z,100927.07
2017-10-21T14:28:15.438Z,100923.16
2017-10-21T14:30:41.200Z,100915.95
2017-10-21T14:33:06.952Z,100921.56
2017-10-21T14:35:33.741Z,100922.82
2017-10-21T14:38:00.451Z,100929.73
2017-10-21T14:40:26.187Z,100934.35
2017-10-21T14:42:51.933Z,100935.50
2017-10-21T14:45:17.688Z,100942.16
2017-10-21T14:47:43.559Z,100943.41
2017-10-21T14:50:09.878Z,100945.14
2017-10-21T14:52:35.641Z,100948.77
2017-10-21T14:55:01.445Z,100943.09
2017-10-21T14:57:27.225Z,100953.34
2017-10-21T14:59:53.083Z,100953.11
2017-10-21T15:02:18.841Z,100960.40
2017-10-21T15:04:44.728Z,100961.39
2017-10-21T15:07:10.476Z,100959.83
2017-10-21T15:09:37.175Z,100967.58
2017-10-21T15:12:03.740Z,100965.70
2017-10-21T15:14:29.507Z,100967.88
2017-10-21T15:16:55.295Z,100973.18
2017-10-21T15:19:21.040Z,100967.88
2017-10-21T15:21:47.004Z,100976.67
2017-10-21T15:24:12.813Z,100969.63
2017-10-21T15:26:40.144Z,100968.86
2017-10-21T15:29:05.899Z,100958.84
2017-10-21T15:31:31.656Z,100965.14
2017-10-21T15:33:57.409Z,100960.67
2017-10-21T15:36:23.159Z,100967.72
2017-10-21T15:38:48.940Z,100960.33
2017-10-21T15:41:14.675Z,100960.97
2017-10-21T15:43:41.408Z,100953.53
2017-10-21T15:46:08.220Z,100947.61
2017-10-21T15:48:33.997Z,100947.12
2017-10-21T15:50:59.743Z,100939.57
2017-10-21T15:53:25.491Z,100942.80
2017-10-21T15:55:51.280Z,100935.02
2017-10-21T15:58:17.161Z,100937.26
2017-10-21T16:00:43.077Z,100941.05
2017-10-21T16:03:09.350Z,100934.03
2017-10-21T16:05:35.529Z,100940.18
2017-10-21T16:08:01.785Z,100930.55
2017-10-21T16:10:28.041Z,100932.24
2017-10-21T16:12:54.097Z,100934.67
2017-10-21T16:15:19.830Z,100934.11
2017-10-21T16:17:45.616Z,100932.66
2017-10-21T16:20:11.378Z,100935.24
2017-10-21T16:22:37.122Z,100928.19
2017-10-21T16:25:02.872Z,100931.87
2017-10-21T16:27:29.403Z,100935.36
2017-10-21T16:29:55.376Z,100933.91
2017-10-21T16:32:21.262Z,100933.42
2017-10-21T16:34:47.078Z,100925.11
2017-10-21T16:37:12.977Z,100924.31
2017-10-21T16:39:38.733Z,100927.34
2017-10-21T16:42:05.364Z,100928.94
2017-10-21T16:44:31.114Z,100925.65
2017-10-21T16:46:56.889Z,100927.32
2017-10-21T16:49:22.852Z,100923.76
2017-10-21T16:51:48.605Z,100934.11
2017-10-21T16:54:14.476Z,100939.64
2017-10-21T16:56:40.422Z,100937.48
2017-10-21T16:59:07.103Z,100946.28
2017-10-21T17:01:32.967Z,100944.16
2017-10-21T17:04:00.632Z,100948.11
2017-10-21T17:06:26.435Z,100941.66
2017-10-21T17:08:53.542Z,100938.52
2017-10-21T17:11:19.297Z,100944.31
2017-10-21T17:13:45.088Z,100937.90
2017-10-21T17:16:10.860Z,100931.33
2017-10-21T17:18:37.532Z,100925.63
2017-10-21T17:21:03.292Z,100929.61
2017-10-21T17:23:29.103Z,100934.83
2017-10-21T17:25:55.080Z,100933.84
2017-10-21T17:28:20.835Z,100926.04
2017-10-21T17:30:46.595Z,100922.89
2017-10-21T17:33:12.370Z,100922.03
2017-10-21T17:35:38.150Z,100917.19
2017-10-21T17:38:03.937Z,100920.83
2017-10-21T17:40:29.797Z,100911.27
2017-10-21T17:42:55.588Z,100913.28
2017-10-21T17:45:21.351Z,100921.17
2017-10-21T17:47:47.099Z,100920.48
2017-10-21T17:50:12.852Z,100926.22
2017-10-21T17:52:38.598Z,100923.98
2017-10-21T17:55:04.351Z,100909.22
2017-10-21T17:57:30.096Z,100907.35
2017-10-21T17:59:55.937Z,100902.38
2017-10-21T18:02:21.727Z,100905.88
2017-10-21T18:04:47.479Z,100917.22
2017-10-21T18:07:13.236Z,100912.52
2017-10-21T18:09:39.030Z,100908.80
2017-10-21T18:12:04.780Z,100904.77
2017-10-21T18:14:30.529Z,100907.20
2017-10-21T18:16:57.123Z,100908.88
2017-10-21T18:19:22.879Z,100903.84
2017-10-21T18:21:49.487Z,100906.03
2017-10-21T18:24:15.235Z,100906.03
2017-10-21T18:26:40.984Z,100903.57
2017-10-21T18:29:06.740Z,100900.15
2017-10-21T18:31:32.497Z,100896.09
2017-10-21T18:33:58.334Z,100895.40
2017-10-21T18:36:24.117Z,100895.10
2017-10-21T18:38:49.940Z,100892.03
2017-10-21T18:41:15.727Z,100885.39
2017-10-21T18:43:41.525Z,100892.80
2017-10-21T18:46:07.299Z,100888.61
2017-10-21T18:48:33.100Z,100888.53
2017-10-21T18:50:58.895Z,100888.88
2017-10-21T18:53:24.826Z,100889.75
2017-10-21T18:55:51.421Z,100891.84
2017-10-21T18:58:17.168Z,100886.87
2017-10-21T19:00:42.950Z,100894.91
2017-10-21T19:03:08.744Z,100903.80
2017-10-21T19:05:34.499Z,100901.55
2017-10-21T19:08:00.365Z,100892.05
2017-10-21T19:10:26.221Z,100889.59
2017-10-21T19:12:51.960Z,100895.52
2017-10-21T19:15:17.777Z,100894.13
2017-10-21T19:17:48.954Z,100892.19
2017-10-21T19:20:15.024Z,100888.34
2017-10-21T19:22:41.215Z,100893.58
2017-10-21T19:25:07.016Z,100888.81
2017-10-21T19:27:39.062Z,100877.77
2017-10-21T19:30:04.875Z,100882.20
2017-10-21T19:32:30.921Z,100881.41
2017-10-21T19:34:56.767Z,100886.80
2017-10-21T19:37:22.517Z,100887.13
2017-10-21T19:39:48.267Z,100889.59
2017-10-21T19:42:14.012Z,100887.11
2017-10-21T19:44:39.764Z,100885.84
2017-10-21T19:47:05.621Z,100877.79
2017-10-21T19:49:31.369Z,100876.83
2017-10-21T19:51:57.127Z,100865.37
2017-10-21T19:54:22.941Z,100848.61
2017-10-21T19:56:49.724Z,100836.63
2017-10-21T19:59:15.484Z,100834.09
2017-10-21T20:01:41.357Z,100836.73
2017-10-21T20:04:07.127Z,100844.64
2017-10-21T20:06:32.898Z,100843.26
2017-10-21T20:09:00.459Z,100847.70
2017-10-21T20:11:26.356Z,100848.08
2017-10-21T20:13:53.632Z,100859.04
2017-10-21T20:16:20.371Z,100848.77
2017-10-21T20:18:46.252Z,100842.78
2017-10-21T20:21:12.032Z,100839.22
2017-10-21T20:23:37.947Z,100819.83
2017-10-21T20:26:03.741Z,100803.20
2017-10-21T20:28:29.641Z,100817.33
2017-10-21T20:30:55.492Z,100825.00
2017-10-21T20:33:23.303Z,100826.02
2017-10-21T20:35:49.071Z,100814.56
2017-10-21T20:38:14.855Z,100803.61
2017-10-21T20:40:40.616Z,100791.94
2017-10-21T20:43:06.416Z,100790.08
2017-10-21T20:45:32.206Z,100800.06
2017-10-21T20:47:57.989Z,100803.36
2017-10-21T20:50:26.657Z,100804.88
2017-10-21T20:52:52.435Z,100808.45
2017-10-21T20:55:18.204Z,100807.33
2017-10-21T20:57:43.951Z,100813.14
2017-10-21T21:00:09.704Z,100829.43
2017-10-21T21:02:35.519Z,100835.14
2017-10-21T21:05:01.270Z,100837.73
2017-10-21T21:07:27.025Z,100834.92
2017-10-21T21:09:52.828Z,100832.56
2017-10-21T21:12:18.584Z,100836.06
2017-10-21T21:14:45.181Z,100828.36
2017-10-21T21:17:11.054Z,100820.05
2017-10-21T21:19:36.819Z,100815.83
2017-10-21T21:22:02.764Z,100823.13
2017-10-21T21:24:29.698Z,100823.61
2017-10-21T21:26:56.112Z,100816.63
2017-10-21T21:29:21.866Z,100805.22
2017-10-21T21:31:48.441Z,100805.05
2017-10-21T21:34:15.029Z,100815.09
2017-10-21T21:36:40.792Z,100818.88
2017-10-21T21:39:06.597Z,100813.89
2017-10-21T21:41:32.378Z,100810.83
2017-10-21T21:43:58.133Z,100807.83
2017-10-21T21:46:23.990Z,100817.19
2017-10-21T21:48:49.763Z,100819.98
2017-10-21T21:51:15.551Z,100804.03
2017-10-21T21:53:41.327Z,100810.25
2017-10-21T21:56:07.964Z,100813.48
2017-10-21T21:58:33.741Z,100815.66
2017-10-21T22:00:59.492Z,100817.47
2017-10-21T22:03:25.417Z,100811.72
2017-10-21T22:05:52.198Z,100811.65
2017-10-21T22:08:18.112Z,100809.75
2017-10-21T22:10:44.527Z,100810.91
2017-10-21T22:13:10.328Z,100808.44
2017-10-21T22:15:36.147Z,100801.10
2017-10-21T22:18:01.906Z,100803.20
2017-10-21T22:20:27.656Z,100797.47
2017-10-21T22:22:53.503Z,100795.08
2017-10-21T22:25:19.313Z,100799.02
2017-10-21T22:27:45.284Z,100798.52
2017-10-21T22:30:11.948Z,100797.88
2017-10-21T22:32:37.709Z,100802.36
2017-10-21T22:35:03.474Z,100795.71
2017-10-21T22:37:29.251Z,100794.45
2017-10-21T22:39:55.031Z,100794.45
2017-10-21T22:42:20.780Z,100795.78
2017-10-21T22:44:46.531Z,100785.31
2017-10-21T22:47:12.304Z,100770.24
2017-10-21T22:49:38.039Z,100769.39
2017-10-21T22:52:04.805Z,100772.23
2017-10-21T22:54:30.699Z,100773.83
2017-10-21T22:56:56.456Z,100776.14
2017-10-21T22:59:22.247Z,100782.70
2017-10-21T23:01:47.991Z,100778.53
2017-10-21T23:04:14.409Z,100775.13
2017-10-21T23:06:40.164Z,100770.06
2017-10-21T23:09:05.904Z,100775.25
2017-10-21T23:11:32.638Z,100767.02
2017-10-21T23:13:59.301Z,100767.14
2017-10-21T23:16:25.980Z,100773.56
2017-10-21T23:18:51.858Z,100771.55
2017-10-21T23:21:17.813Z,100766.75
2017-10-21T23:23:43.551Z,100765.67
2017-10-21T23:26:09.422Z,100762.25
2017-10-21T23:28:36.176Z,100762.45
2017-10-21T23:31:01.931Z,100765.26
2017-10-21T23:33:27.724Z,100756.44
2017-10-21T23:35:53.483Z,100765.31
2017-10-21T23:38:20.362Z,100759.28
2017-10-21T23:40:46.113Z,100762.59
2017-10-21T23:43:12.816Z,100760.97
2017-10-21T23:45:39.422Z,100761.28
2017-10-21T23:48:05.176Z,100756.72
2017-10-21T23:50:30.936Z,100743.86
2017-10-21T23:52:56.676Z,100743.59
2017-10-21T23:55:23.368Z,100739.38
2017-10-21T23:57:49.118Z,100740.12
